Terminal Aerodrome Forecast
Issued by NWS Billings, MT

Home | Current Version | Previous Version | Text Only | Print | Product List | Glossary On
Versions: 1 2 3 4 5 6 7 8 9 10 11 12 13 14
000
FTUS45 KBYZ 200521
TAFMLS
TAF
KMLS 200521Z 2006/2106 02009KT P6SM VCSH FEW120 SCT240
     FM201300 07008KT P6SM FEW100 SCT200
     FM201700 11008KT P6SM FEW100 SCT200=

USA.gov is the U.S. government's official web portal to all federal, state and local government web resources and services.